Time;durP1;ratioP1;P1;durP2;ratioP2;P2;SDS_P1;SDS_P2;PMS_P1;PMS_P2;Temp;Humidity;BMP_temperature;BMP_pressure;BME280_temperature;BME280_humidity;BME280_pressure;Samples;Min_cycle;Max_cycle;Signal;HPM_P1;HPM_P2
2021/07/26 00:01:22;;;;;;;8.00;5.45;;;;;;;22.01;47.27;100365.00;5067115;28;20444;-23
2021/07/26 00:03:47;;;;;;;13.57;6.13;;;;;;;21.33;48.97;100362.34;5067030;28;20051;-23
2021/07/26 00:06:13;;;;;;;17.83;8.07;;;;;;;21.39;48.93;100372.06;5066983;28;20028;-22
2021/07/26 00:08:39;;;;;;;28.73;12.20;;;;;;;21.10;49.46;100364.66;5067178;28;20033;-23
2021/07/26 00:11:05;;;;;;;46.92;19.73;;;;;;;21.14;49.70;100365.72;5067135;28;20040;-23
2021/07/26 00:13:32;;;;;;;68.47;31.88;;;;;;;21.19;49.66;100367.63;5066871;28;20051;-21
2021/07/26 00:15:57;;;;;;;87.55;41.90;;;;;;;21.60;48.38;100361.88;5049176;28;20033;-22
2021/07/26 00:18:23;;;;;;;86.97;41.38;;;;;;;21.60;47.78;100368.13;5066970;28;20028;-22
2021/07/26 00:20:48;;;;;;;60.38;29.88;;;;;;;21.46;47.62;100361.72;5067030;28;20033;-22
2021/07/26 00:23:14;;;;;;;54.42;26.30;;;;;;;21.59;47.50;100385.47;5066937;28;20033;-22
2021/07/26 00:25:40;;;;;;;41.97;23.00;;;;;;;21.51;47.63;100391.53;5049491;28;20399;-22
2021/07/26 00:28:07;;;;;;;34.55;17.20;;;;;;;21.06;49.24;100386.13;5066905;28;20036;-22
2021/07/26 00:30:33;;;;;;;27.08;14.18;;;;;;;20.92;49.52;100393.25;5049411;28;20078;-22
2021/07/26 00:32:59;;;;;;;18.45;10.35;;;;;;;20.87;49.78;100394.09;5048924;28;20094;-22
2021/07/26 00:35:24;;;;;;;14.70;8.40;;;;;;;20.98;49.65;100389.41;5066671;28;20458;-22
2021/07/26 00:37:50;;;;;;;15.00;7.63;;;;;;;20.96;49.78;100391.59;5066975;28;20032;-22
2021/07/26 00:40:16;;;;;;;13.90;7.70;;;;;;;20.58;50.74;100375.00;5067297;28;20028;-22
2021/07/26 00:42:42;;;;;;;11.75;6.72;;;;;;;19.91;52.83;100379.78;5066835;28;20064;-22
2021/07/26 00:45:08;;;;;;;13.10;7.38;;;;;;;20.23;52.09;100389.47;5066672;28;20029;-22
2021/07/26 00:47:33;;;;;;;10.85;6.63;;;;;;;20.59;51.22;100381.22;5066743;28;20024;-22
2021/07/26 00:49:58;;;;;;;10.20;6.70;;;;;;;20.19;52.37;100388.41;5066509;28;20037;-22
2021/07/26 00:52:24;;;;;;;11.02;6.70;;;;;;;19.81;53.67;100377.91;5066800;28;20117;-22
2021/07/26 00:54:50;;;;;;;9.98;6.80;;;;;;;20.07;52.88;100381.38;5067346;28;20042;-22
2021/07/26 00:57:15;;;;;;;12.90;6.70;;;;;;;20.54;51.82;100378.53;5066407;28;20396;-22
2021/07/26 00:59:41;;;;;;;10.13;6.47;;;;;;;20.40;52.01;100367.47;5066728;28;20029;-22
2021/07/26 01:02:06;;;;;;;11.27;6.32;;;;;;;20.55;51.82;100367.38;5048863;28;20043;-22
2021/07/26 01:04:32;;;;;;;10.30;6.22;;;;;;;20.87;50.70;100358.84;5066580;28;20028;-22
2021/07/26 01:06:57;;;;;;;9.48;5.78;;;;;;;20.57;51.31;100359.00;5066502;28;20472;-22
2021/07/26 01:09:23;;;;;;;10.15;6.32;;;;;;;20.79;50.67;100367.56;5066183;28;20021;-22
2021/07/26 01:11:48;;;;;;;13.07;6.15;;;;;;;19.92;54.17;100370.59;5066265;28;20032;-22
2021/07/26 01:14:15;;;;;;;11.25;6.10;;;;;;;19.78;54.24;100367.63;5066774;28;20072;-22
2021/07/26 01:16:42;;;;;;;17.40;8.10;;;;;;;19.26;55.27;100358.69;5066698;28;20239;-22
2021/07/26 01:19:07;;;;;;;10.40;7.05;;;;;;;19.24;55.41;100351.91;5067049;28;20810;-22
2021/07/26 01:21:33;;;;;;;22.48;8.77;;;;;;;18.86;56.47;100349.44;5070238;28;20044;-22
2021/07/26 01:24:00;;;;;;;17.35;9.20;;;;;;;18.94;56.60;100358.09;5070302;28;20078;-22
2021/07/26 01:26:26;;;;;;;21.73;9.35;;;;;;;18.96;56.39;100345.13;5070101;28;20040;-22
2021/07/26 01:28:53;;;;;;;19.30;8.57;;;;;;;19.54;54.20;100364.63;5070043;28;20093;-22
2021/07/26 01:31:19;;;;;;;19.23;9.25;;;;;;;19.78;53.93;100361.41;5070027;28;20036;-22
2021/07/26 01:33:45;;;;;;;29.55;14.98;;;;;;;20.02;53.46;100362.44;5069589;28;20033;-22
2021/07/26 01:36:11;;;;;;;237.15;104.20;;;;;;;20.35;51.98;100357.47;5051709;28;20047;-22
2021/07/26 01:38:37;;;;;;;119.57;53.65;;;;;;;19.79;53.04;100360.31;5069796;28;20111;-22
2021/07/26 01:41:04;;;;;;;45.35;23.02;;;;;;;18.80;55.93;100326.19;5070111;28;20037;-22
2021/07/26 01:43:33;;;;;;;27.02;14.60;;;;;;;19.19;55.32;100350.03;5069665;28;20378;-22
2021/07/26 01:46:22;;;;;;;15.73;10.70;;;;;;;19.02;55.92;100344.88;5069653;28;20036;-23
2021/07/26 01:49:55;;;;;;;16.95;7.20;;;;;;;18.89;56.56;100353.50;5069777;28;20071;-22
2021/07/26 01:52:21;;;;;;;12.75;6.47;;;;;;;19.07;55.75;100352.97;4944944;28;20493;-22
2021/07/26 01:54:47;;;;;;;10.10;6.03;;;;;;;19.13;55.62;100334.88;5034587;28;20051;-22
2021/07/26 01:57:13;;;;;;;12.25;7.40;;;;;;;19.11;55.68;100347.88;5069144;28;20507;-22
2021/07/26 01:59:38;;;;;;;71.53;33.75;;;;;;;19.19;55.22;100344.63;5069119;28;20028;-22
2021/07/26 02:02:04;;;;;;;55.83;29.08;;;;;;;19.04;56.15;100352.69;5051698;28;20044;-22
2021/07/26 02:04:29;;;;;;;60.58;30.60;;;;;;;18.77;57.00;100340.19;5069356;28;20036;-22
2021/07/26 02:06:55;;;;;;;52.65;25.45;;;;;;;18.82;57.18;100356.47;5069267;28;20472;-22
2021/07/26 02:09:20;;;;;;;18.92;8.85;;;;;;;19.27;55.58;100357.59;5068969;28;20035;-22
2021/07/26 02:11:46;;;;;;;17.35;9.48;;;;;;;18.78;56.96;100343.72;5069092;28;20036;-22
2021/07/26 02:14:11;;;;;;;21.10;12.05;;;;;;;18.58;57.98;100350.69;5068958;28;20053;-22
2021/07/26 02:16:42;;;;;;;19.33;9.80;;;;;;;18.67;57.69;100359.06;5069029;28;20029;-22
2021/07/26 02:19:07;;;;;;;11.35;6.50;;;;;;;18.54;57.58;100341.47;5068656;28;20086;-22
2021/07/26 02:21:33;;;;;;;10.77;6.97;;;;;;;19.12;55.73;100359.47;5050721;28;20036;-23
2021/07/26 02:23:58;;;;;;;12.32;6.85;;;;;;;18.92;56.25;100342.16;5068967;28;20032;-22
2021/07/26 02:26:24;;;;;;;14.77;8.45;;;;;;;18.45;58.40;100353.88;5069352;28;20093;-22
2021/07/26 02:28:49;;;;;;;13.57;8.13;;;;;;;18.25;59.18;100357.31;5068793;28;20040;-22
2021/07/26 02:31:15;;;;;;;23.17;9.88;;;;;;;18.10;59.40;100365.31;5050614;28;20041;-22
2021/07/26 02:33:40;;;;;;;19.27;8.52;;;;;;;17.85;59.58;100369.47;5069040;28;20135;-22
2021/07/26 02:36:06;;;;;;;14.73;8.30;;;;;;;17.49;60.86;100350.31;5050821;28;20454;-22
2021/07/26 02:38:31;;;;;;;21.52;11.82;;;;;;;17.30;61.99;100363.34;5068337;28;20031;-22
2021/07/26 02:40:57;;;;;;;35.65;20.98;;;;;;;17.41;60.97;100359.69;5068500;28;20047;-22
2021/07/26 02:43:22;;;;;;;20.80;14.43;;;;;;;17.17;61.44;100361.91;5068229;28;20024;-23
2021/07/26 02:45:48;;;;;;;22.38;11.77;;;;;;;16.74;62.09;100344.75;5068751;28;20460;-22
2021/07/26 02:48:14;;;;;;;22.25;15.50;;;;;;;17.12;61.33;100356.47;5068324;28;20040;-22
2021/07/26 02:50:39;;;;;;;28.73;15.93;;;;;;;17.03;61.56;100331.84;5068306;28;20032;-22
2021/07/26 02:53:05;;;;;;;21.90;12.88;;;;;;;17.33;60.85;100335.09;5068081;28;20452;-22
2021/07/26 02:55:30;;;;;;;18.83;11.15;;;;;;;17.86;59.41;100331.44;5068172;28;20040;-23
2021/07/26 02:57:56;;;;;;;21.10;10.40;;;;;;;18.07;59.47;100345.88;5068394;28;20098;-22
2021/07/26 03:00:22;;;;;;;16.27;11.13;;;;;;;17.69;60.80;100349.63;5068219;28;20032;-23
2021/07/26 03:02:47;;;;;;;17.92;10.20;;;;;;;17.59;61.20;100353.09;5068154;28;20039;-22
2021/07/26 03:05:13;;;;;;;19.25;11.13;;;;;;;17.46;61.16;100354.31;5067944;28;20085;-22
2021/07/26 03:07:38;;;;;;;19.17;10.77;;;;;;;18.12;59.29;100361.25;5068244;28;20043;-22
2021/07/26 03:10:04;;;;;;;21.20;11.48;;;;;;;17.47;60.64;100358.66;5068066;28;20925;-22
2021/07/26 03:12:29;;;;;;;23.25;10.60;;;;;;;17.26;61.73;100352.28;5067540;28;20043;-22
2021/07/26 03:14:55;;;;;;;20.33;9.65;;;;;;;17.06;61.88;100365.53;5067675;28;20064;-22
2021/07/26 03:17:24;;;;;;;31.52;11.05;;;;;;;17.26;60.91;100367.63;5068030;28;20127;-22
2021/07/26 03:19:52;;;;;;;33.22;14.55;;;;;;;17.81;59.47;100371.03;5067932;28;20036;-22
2021/07/26 03:22:39;;;;;;;30.23;13.52;;;;;;;17.15;60.99;100358.66;5067833;28;20107;-22
2021/07/26 03:25:05;;;;;;;28.38;14.88;;;;;;;16.98;61.69;100384.88;5066394;28;20393;-22
2021/07/26 03:27:30;;;;;;;29.73;15.57;;;;;;;17.20;61.25;100372.19;5033404;28;20020;-22
2021/07/26 03:29:56;;;;;;;38.35;19.10;;;;;;;17.16;61.90;100389.94;5067620;28;20032;-22
2021/07/26 03:32:21;;;;;;;30.85;16.88;;;;;;;17.39;61.39;100404.16;5049749;28;20021;-23
2021/07/26 03:34:47;;;;;;;86.00;44.45;;;;;;;17.73;61.43;100393.91;5067686;28;20046;-22
2021/07/26 03:37:12;;;;;;;62.35;36.28;;;;;;;18.04;60.40;100394.16;5067096;28;20028;-22
2021/07/26 03:39:38;;;;;;;30.67;17.95;;;;;;;17.73;61.30;100393.91;5066917;28;20032;-21
2021/07/26 03:42:04;;;;;;;24.27;13.38;;;;;;;17.75;61.64;100393.66;5066549;28;20084;-22
2021/07/26 03:44:29;;;;;;;32.47;17.05;;;;;;;17.98;61.46;100396.03;5067334;28;20086;-22
2021/07/26 03:46:58;;;;;;;27.95;16.10;;;;;;;18.37;59.84;100403.81;5067278;28;20028;-22
2021/07/26 03:49:23;;;;;;;95.03;45.63;;;;;;;18.71;57.86;100408.00;5065895;28;20036;-23
2021/07/26 03:51:49;;;;;;;66.35;34.13;;;;;;;18.79;57.56;100407.50;5066925;28;20039;-22
2021/07/26 03:54:14;;;;;;;47.97;24.40;;;;;;;18.39;58.87;100408.94;5067599;28;20032;-22
2021/07/26 03:56:39;;;;;;;34.97;22.02;;;;;;;18.51;57.88;100414.94;5067526;28;20055;-22
2021/07/26 03:59:05;;;;;;;47.65;40.05;;;;;;;18.60;57.12;100424.16;5067235;28;20036;-22
2021/07/26 04:01:30;;;;;;;63.28;28.67;;;;;;;18.46;57.77;100423.81;5067323;28;20032;-22
2021/07/26 04:03:56;;;;;;;62.20;55.03;;;;;;;18.07;58.94;100432.22;5067341;28;20043;-22
2021/07/26 04:06:22;;;;;;;34.05;23.42;;;;;;;18.35;58.10;100415.91;5049339;28;20407;-22
2021/07/26 04:08:50;;;;;;;38.83;21.55;;;;;;;18.30;58.67;100435.59;5067153;28;20040;-22
2021/07/26 04:13:41;;;;;;;31.48;19.95;;;;;;;18.39;59.21;100434.06;5066838;28;20036;-22
2021/07/26 04:16:06;;;;;;;34.92;20.08;;;;;;;18.42;58.96;100417.31;5067294;28;20039;-22
2021/07/26 04:18:32;;;;;;;77.13;45.50;;;;;;;18.69;58.72;100413.66;5067012;28;20859;-22
2021/07/26 04:20:58;;;;;;;53.58;29.92;;;;;;;19.17;57.13;100410.88;5049025;28;20425;-22
2021/07/26 04:23:23;;;;;;;36.60;24.45;;;;;;;19.10;58.14;100421.91;5066750;28;20469;-22
2021/07/26 04:25:50;;;;;;;76.38;44.90;;;;;;;19.22;57.45;100410.84;5066825;28;20587;-22
2021/07/26 04:28:16;;;;;;;65.15;40.35;;;;;;;19.74;56.42;100417.97;5066867;28;20029;-22
2021/07/26 04:30:41;;;;;;;66.80;40.80;;;;;;;20.02;55.60;100432.84;5066856;28;20039;-22
2021/07/26 04:33:09;;;;;;;43.70;31.10;;;;;;;20.07;55.46;100429.31;5066614;28;20492;-22
2021/07/26 04:35:35;;;;;;;;;;;;;;;19.98;55.92;100434.47;5067472;28;20032;-22
2021/07/26 04:38:00;;;;;;;51.97;43.70;;;;;;;19.87;56.18;100430.13;5066851;28;20392;-22
2021/07/26 04:40:25;;;;;;;42.05;29.35;;;;;;;20.10;55.23;100433.34;5067239;28;20521;-22
2021/07/26 04:42:52;;;;;;;40.28;24.23;;;;;;;20.16;55.47;100441.19;5066986;28;20029;-22
2021/07/26 04:45:17;;;;;;;17.73;11.35;;;;;;;20.20;55.76;100438.75;5032482;28;20037;-22
2021/07/26 04:47:43;;;;;;;13.10;8.80;;;;;;;19.49;57.18;100445.78;5067180;28;20043;-22
2021/07/26 04:50:09;;;;;;;15.93;9.55;;;;;;;19.53;57.22;100441.44;5066554;28;20036;-22
2021/07/26 04:52:34;;;;;;;17.50;9.43;;;;;;;18.96;59.15;100458.63;5066524;28;20060;-22
2021/07/26 04:55:00;;;;;;;20.60;14.27;;;;;;;18.83;59.92;100458.03;5069140;28;20071;-22
2021/07/26 04:57:26;;;;;;;25.60;15.45;;;;;;;18.90;59.98;100443.47;5070412;28;20051;-22
2021/07/26 04:59:51;;;;;;;24.88;14.60;;;;;;;19.40;57.89;100452.81;5070682;28;20388;-22
2021/07/26 05:02:17;;;;;;;26.52;18.17;;;;;;;19.71;56.38;100442.03;5070691;28;20342;-22
2021/07/26 05:04:42;;;;;;;25.77;16.40;;;;;;;19.70;56.78;100459.34;5070321;28;20048;-22
2021/07/26 05:07:07;;;;;;;19.25;13.93;;;;;;;19.89;56.11;100448.81;5070304;28;20024;-22
2021/07/26 05:09:38;;;;;;;23.27;13.40;;;;;;;20.48;54.50;100432.72;5070307;28;20032;-22
2021/07/26 05:12:07;;;;;;;18.85;11.68;;;;;;;20.52;54.02;100453.84;5069965;28;20033;-22
2021/07/26 05:14:33;;;;;;;15.40;10.30;;;;;;;20.44;54.31;100444.38;5070279;28;20056;-22
2021/07/26 05:16:59;;;;;;;19.90;11.30;;;;;;;20.36;54.32;100443.03;5070266;28;20033;-22
2021/07/26 05:19:24;;;;;;;15.73;10.93;;;;;;;20.98;53.20;100451.78;5069842;28;20040;-22
2021/07/26 05:21:50;;;;;;;20.95;11.63;;;;;;;21.34;52.18;100439.94;5070179;28;20395;-22
2021/07/26 05:24:15;;;;;;;21.27;12.00;;;;;;;21.53;51.37;100437.38;5070159;28;20025;-22
2021/07/26 05:26:41;;;;;;;19.23;10.45;;;;;;;21.69;50.31;100428.03;5069750;28;20032;-22
2021/07/26 05:29:06;;;;;;;17.80;11.05;;;;;;;21.71;50.83;100438.59;5069454;28;20086;-22
2021/07/26 05:31:32;;;;;;;13.52;9.20;;;;;;;21.81;51.07;100438.50;5069866;28;20036;-22
2021/07/26 05:33:57;;;;;;;14.05;9.10;;;;;;;21.69;52.17;100430.72;5069720;28;20472;-22
2021/07/26 05:36:24;;;;;;;16.38;9.25;;;;;;;22.02;50.91;100439.94;5070085;28;20040;-22
2021/07/26 05:38:50;;;;;;;15.32;9.73;;;;;;;22.07;50.88;100434.47;5069959;28;20539;-22
2021/07/26 05:41:16;;;;;;;15.45;10.48;;;;;;;21.61;52.04;100436.78;5069612;28;20113;-22
2021/07/26 05:43:42;;;;;;;15.68;9.98;;;;;;;21.84;51.55;100443.34;5069750;28;20471;-22
2021/07/26 05:46:07;;;;;;;17.80;11.02;;;;;;;22.02;50.29;100439.13;5069520;28;20033;-22
2021/07/26 05:48:33;;;;;;;19.58;10.13;;;;;;;22.13;50.02;100435.22;5069715;28;20420;-22
2021/07/26 05:50:58;;;;;;;17.38;11.10;;;;;;;22.00;50.32;100442.13;5069746;28;20090;-22
2021/07/26 05:53:23;;;;;;;19.13;10.48;;;;;;;22.46;50.00;100444.41;5069630;28;20029;-22
2021/07/26 05:55:49;;;;;;;16.58;9.95;;;;;;;22.64;49.24;100442.84;5069485;28;20035;-22
2021/07/26 05:58:14;;;;;;;17.02;9.77;;;;;;;22.43;49.67;100439.56;5069331;28;20105;-22
2021/07/26 06:00:56;;;;;;;14.10;8.40;;;;;;;22.34;50.68;100444.00;5069280;28;20037;-22
2021/07/26 06:03:22;;;;;;;18.42;9.15;;;;;;;22.71;49.12;100441.69;5069214;28;20055;-22
2021/07/26 06:05:47;;;;;;;14.30;7.85;;;;;;;22.76;48.31;100441.59;5069290;28;20484;-22
2021/07/26 06:08:13;;;;;;;12.45;7.63;;;;;;;22.79;47.63;100436.41;5069449;28;20040;-22
2021/07/26 06:10:38;;;;;;;13.43;7.55;;;;;;;22.92;47.87;100439.50;5069366;28;20389;-22
2021/07/26 06:13:05;;;;;;;12.07;7.22;;;;;;;23.32;46.51;100442.81;5068761;28;20040;-22
2021/07/26 06:15:30;;;;;;;13.38;7.75;;;;;;;23.52;44.96;100447.94;5069163;28;20121;-22
2021/07/26 06:17:56;;;;;;;10.40;6.18;;;;;;;23.52;45.35;100447.09;5069546;28;20450;-22
2021/07/26 06:20:21;;;;;;;12.73;7.05;;;;;;;23.31;45.49;100457.50;5069469;28;20037;-22
2021/07/26 06:22:47;;;;;;;9.93;6.03;;;;;;;23.47;45.62;100451.50;5069142;28;20040;-22
2021/07/26 06:25:12;;;;;;;11.63;6.60;;;;;;;23.69;45.33;100447.38;5068866;28;20082;-22
2021/07/26 06:27:40;;;;;;;9.02;6.45;;;;;;;23.60;44.70;100449.97;5068813;28;20393;-22
2021/07/26 06:30:06;;;;;;;12.20;7.07;;;;;;;23.74;45.14;100441.03;5068680;28;20036;-22
2021/07/26 06:32:32;;;;;;;14.52;8.30;;;;;;;23.65;44.41;100447.16;5068681;28;20032;-22
2021/07/26 06:34:58;;;;;;;11.95;7.00;;;;;;;23.49;45.05;100439.53;5068905;28;20039;-22
2021/07/26 06:37:24;;;;;;;11.77;6.72;;;;;;;23.91;44.10;100443.25;5068444;28;20037;-22
2021/07/26 06:39:49;;;;;;;13.23;6.95;;;;;;;23.80;44.04;100431.69;5050613;28;20085;-22
2021/07/26 06:42:15;;;;;;;12.55;7.07;;;;;;;24.00;44.04;100444.97;5068905;28;20044;-22
2021/07/26 06:44:40;;;;;;;13.43;6.80;;;;;;;24.10;43.52;100441.25;5068379;28;20040;-22
2021/07/26 06:47:06;;;;;;;15.02;8.45;;;;;;;24.38;42.82;100442.09;5068446;28;20032;-22
2021/07/26 06:49:31;;;;;;;11.20;6.80;;;;;;;24.65;42.78;100446.75;5068710;28;20908;-22
2021/07/26 06:51:57;;;;;;;15.15;6.53;;;;;;;24.52;41.93;100431.22;5068297;28;20507;-22
2021/07/26 06:54:22;;;;;;;9.15;6.05;;;;;;;24.37;42.93;100442.41;5068487;28;20385;-22
2021/07/26 06:56:47;;;;;;;12.25;6.72;;;;;;;24.76;42.80;100447.34;5068121;28;20032;-22
2021/07/26 06:59:13;;;;;;;11.43;5.75;;;;;;;24.99;42.65;100452.91;5067989;28;20043;-22
2021/07/26 07:01:38;;;;;;;9.32;5.65;;;;;;;25.11;42.21;100436.81;5068353;28;20840;-22
2021/07/26 07:04:04;;;;;;;9.30;5.65;;;;;;;25.48;41.14;100442.25;5068153;28;20028;-22
2021/07/26 07:06:30;;;;;;;11.98;6.20;;;;;;;25.44;41.89;100440.16;5068086;28;20111;-22
2021/07/26 07:27:25;;;;;;;12.97;6.13;;;;;;;25.64;40.90;100436.13;4866375;27;8220545;-24
2021/07/26 07:29:50;;;;;;;11.98;6.75;;;;;;;25.91;39.60;100433.56;5105210;28;20452;-23
2021/07/26 07:32:16;;;;;;;9.20;5.85;;;;;;;26.16;39.45;100443.84;5105528;28;20032;-23
2021/07/26 07:34:41;;;;;;;9.13;6.97;;;;;;;26.13;39.10;100440.91;5105286;28;20024;-23
2021/07/26 07:37:09;;;;;;;10.15;6.10;;;;;;;25.90;40.05;100424.56;5105183;28;20024;-23
2021/07/26 07:39:37;;;;;;;11.02;6.95;;;;;;;25.89;39.85;100417.47;5104947;28;20043;-23
2021/07/26 07:42:03;;;;;;;9.55;6.72;;;;;;;26.42;39.89;100430.28;5104819;28;20093;-23
2021/07/26 07:44:32;;;;;;;13.60;7.63;;;;;;;26.66;39.23;100429.06;5104864;28;20068;-23
2021/07/26 07:46:58;;;;;;;8.90;6.30;;;;;;;26.66;38.33;100434.53;5103791;28;20115;-23
2021/07/26 07:49:23;;;;;;;11.00;6.40;;;;;;;26.79;37.99;100430.88;5103915;28;20114;-23
2021/07/26 07:51:49;;;;;;;9.57;5.72;;;;;;;26.76;37.29;100423.28;5104669;28;20085;-23
2021/07/26 07:54:14;;;;;;;11.55;7.50;;;;;;;26.80;38.10;100418.00;5104700;28;20036;-23
2021/07/26 07:56:42;;;;;;;10.57;6.40;;;;;;;26.64;38.92;100420.38;5105014;28;20103;-23
2021/07/26 07:59:09;;;;;;;10.80;6.28;;;;;;;27.00;37.29;100416.56;5103047;28;20024;-23
2021/07/26 08:01:34;;;;;;;9.20;5.40;;;;;;;27.15;36.37;100424.31;5103334;28;20047;-23
2021/07/26 08:03:59;;;;;;;7.18;4.80;;;;;;;27.56;35.49;100428.50;5103366;28;20028;-23
2021/07/26 08:06:25;;;;;;;9.63;5.07;;;;;;;27.72;37.03;100433.47;5103595;28;20542;-23
2021/07/26 08:08:50;;;;;;;11.88;5.95;;;;;;;27.75;36.14;100424.63;5104081;28;20023;-23
2021/07/26 08:11:16;;;;;;;8.52;5.70;;;;;;;27.50;35.86;100432.53;5104097;28;20036;-23
2021/07/26 08:13:41;;;;;;;9.23;5.70;;;;;;;27.70;35.79;100422.03;5104619;28;20039;-23
2021/07/26 08:16:07;;;;;;;8.88;5.30;;;;;;;27.62;34.84;100409.97;5104566;28;20035;-23
2021/07/26 08:18:32;;;;;;;8.65;4.50;;;;;;;28.07;34.64;100422.44;5104440;28;20045;-23
2021/07/26 08:20:58;;;;;;;6.70;4.53;;;;;;;28.41;33.32;100425.03;5103911;28;20032;-23
2021/07/26 08:23:24;;;;;;;9.77;5.35;;;;;;;28.51;34.59;100434.88;5103102;28;20064;-23
2021/07/26 08:25:49;;;;;;;11.02;5.28;;;;;;;28.53;34.40;100423.56;5094771;28;20040;-23
2021/07/26 08:28:15;;;;;;;9.00;4.90;;;;;;;28.36;32.82;100424.41;5094654;28;20068;-23
2021/07/26 08:30:41;;;;;;;10.23;5.38;;;;;;;28.42;32.42;100432.16;5103751;28;20028;-23
2021/07/26 08:33:06;;;;;;;8.43;4.68;;;;;;;28.71;32.81;100425.06;5104065;28;20034;-23
2021/07/26 08:35:32;;;;;;;7.72;4.80;;;;;;;29.03;32.94;100429.06;5104140;28;20501;-23
2021/07/26 08:37:57;;;;;;;8.98;4.15;;;;;;;28.77;31.00;100415.50;5092620;28;20054;-23
2021/07/26 08:40:25;;;;;;;9.30;4.70;;;;;;;29.04;31.36;100418.88;5090417;28;20020;-23
2021/07/26 08:42:50;;;;;;;8.05;4.88;;;;;;;29.07;32.16;100426.41;5090614;28;20027;-23
2021/07/26 08:45:16;;;;;;;8.98;4.53;;;;;;;28.93;31.24;100417.66;5090126;28;20085;-23
2021/07/26 08:47:43;;;;;;;9.70;4.80;;;;;;;29.48;30.19;100422.06;5090413;28;20081;-23
2021/07/26 08:50:09;;;;;;;8.48;4.53;;;;;;;29.79;31.07;100416.13;5090307;28;20053;-23
2021/07/26 08:52:38;;;;;;;7.83;4.77;;;;;;;30.26;29.67;100406.66;5090177;28;20153;-23
2021/07/26 08:55:04;;;;;;;8.65;4.70;;;;;;;29.98;30.27;100410.09;5089989;28;20031;-23
2021/07/26 08:57:30;;;;;;;9.77;5.00;;;;;;;30.09;29.29;100415.13;5090125;28;20031;-23
2021/07/26 08:59:56;;;;;;;7.32;4.43;;;;;;;30.07;29.31;100423.72;5072123;28;20028;-23
2021/07/26 09:02:21;;;;;;;8.38;4.10;;;;;;;29.87;28.41;100414.41;5089992;28;20032;-23
2021/07/26 09:04:46;;;;;;;7.47;4.18;;;;;;;30.08;28.89;100421.75;5090341;28;20028;-23
2021/07/26 09:07:12;;;;;;;9.25;4.68;;;;;;;30.66;29.82;100419.72;5055063;28;20042;-23
2021/07/26 09:09:42;;;;;;;7.65;4.50;;;;;;;30.82;30.67;100417.88;5089910;28;20395;-23
2021/07/26 09:12:08;;;;;;;11.35;4.78;;;;;;;30.55;30.39;100413.09;5072231;28;20816;-23
2021/07/26 09:14:38;;;;;;;6.75;4.50;;;;;;;30.54;29.27;100406.78;5055617;28;20040;-23
2021/07/26 09:17:05;;;;;;;6.57;4.40;;;;;;;30.47;29.73;100405.78;5089719;28;20493;-22
2021/07/26 09:19:57;;;;;;;7.88;4.40;;;;;;;30.69;28.24;100402.53;5089937;28;20020;-23
2021/07/26 09:22:30;;;;;;;6.55;3.83;;;;;;;31.08;27.99;100402.94;5076711;28;20047;-23
2021/07/26 09:25:20;;;;;;;7.57;3.85;;;;;;;31.48;27.94;100410.34;5089584;28;20028;-23
2021/07/26 09:28:09;;;;;;;11.23;3.95;;;;;;;31.13;27.28;100405.41;5074287;28;20050;-23
2021/07/26 09:30:39;;;;;;;8.65;4.00;;;;;;;31.30;28.07;100414.53;5089495;28;20027;-23
2021/07/26 09:33:22;;;;;;;6.47;3.97;;;;;;;31.46;26.48;100401.63;5089209;28;20035;-23
2021/07/26 09:36:13;;;;;;;10.00;3.90;;;;;;;31.73;26.83;100399.19;5089592;28;20553;-23
2021/07/26 09:38:42;;;;;;;8.88;4.20;;;;;;;31.88;27.35;100403.13;5089636;28;20024;-23
2021/07/26 09:41:08;;;;;;;8.40;4.28;;;;;;;31.73;27.48;100380.69;5089132;28;20390;-23
2021/07/26 09:43:34;;;;;;;6.80;3.53;;;;;;;31.46;27.78;100384.28;5089246;28;20551;-23
2021/07/26 09:45:59;;;;;;;9.02;3.90;;;;;;;31.84;28.48;100378.22;5071089;28;20020;-23
2021/07/26 09:48:30;;;;;;;4.80;3.60;;;;;;;32.05;26.25;100372.44;5088190;28;20062;-23
2021/07/26 09:50:57;;;;;;;6.35;3.88;;;;;;;31.97;25.67;100376.94;5088915;28;20139;-23
2021/07/26 09:53:23;;;;;;;8.13;4.20;;;;;;;31.53;28.34;100367.97;5089010;28;20038;-23
2021/07/26 09:55:53;;;;;;;7.95;4.35;;;;;;;31.67;28.24;100373.03;5088908;28;20035;-23
2021/07/26 09:58:39;;;;;;;6.30;3.90;;;;;;;32.20;27.05;100366.13;5089279;28;20042;-23
2021/07/26 10:01:06;;;;;;;9.80;3.90;;;;;;;32.01;26.10;100369.59;5070304;28;20384;-23
2021/07/26 10:03:31;;;;;;;8.27;4.05;;;;;;;32.29;26.11;100349.38;5088746;28;20028;-23
2021/07/26 10:05:58;;;;;;;6.18;3.78;;;;;;;32.53;27.64;100358.56;5089072;28;20486;-23
2021/07/26 10:08:23;;;;;;;8.23;4.37;;;;;;;33.01;25.50;100357.22;5088233;28;20040;-23
2021/07/26 10:10:49;;;;;;;6.05;3.80;;;;;;;33.06;25.11;100353.41;5089178;28;20787;-22
2021/07/26 10:13:14;;;;;;;6.38;3.70;;;;;;;32.97;25.99;100361.09;5088569;28;20028;-23
2021/07/26 10:15:40;;;;;;;5.03;3.50;;;;;;;31.99;27.13;100355.34;5070316;28;20028;-23
2021/07/26 10:18:06;;;;;;;6.78;3.60;;;;;;;32.42;26.11;100347.28;5088659;28;20067;-23
2021/07/26 10:20:36;;;;;;;6.55;3.53;;;;;;;32.92;26.20;100356.66;5088308;28;20120;-23
2021/07/26 10:23:13;;;;;;;8.18;3.65;;;;;;;32.87;25.62;100356.94;5069996;28;20028;-22
2021/07/26 10:25:54;;;;;;;5.70;3.67;;;;;;;32.92;25.31;100355.88;5088645;28;20478;-23
2021/07/26 10:28:42;;;;;;;9.18;3.92;;;;;;;33.09;24.37;100341.63;5088273;28;20056;-23
2021/07/26 10:31:36;;;;;;;7.15;4.00;;;;;;;32.72;25.11;100344.81;5071602;28;20024;-23
2021/07/26 10:34:06;;;;;;;6.65;4.10;;;;;;;33.29;23.63;100344.38;5088851;28;20031;-23
2021/07/26 10:36:58;;;;;;;12.80;4.10;;;;;;;33.26;24.79;100334.03;5088234;28;20068;-23
2021/07/26 10:39:27;;;;;;;7.50;3.72;;;;;;;32.72;26.82;100347.56;5088418;28;20039;-23
2021/07/26 10:41:52;;;;;;;7.35;4.32;;;;;;;32.70;25.96;100347.13;5088116;28;20028;-23
2021/07/26 10:44:17;;;;;;;9.02;4.43;;;;;;;33.12;24.25;100346.44;5088332;28;20031;-23
2021/07/26 10:47:07;;;;;;;6.82;3.78;;;;;;;33.86;23.59;100341.81;5088010;28;20062;-23
2021/07/26 10:49:50;;;;;;;6.70;4.03;;;;;;;34.45;22.42;100345.91;5088198;28;20032;-23
2021/07/26 10:52:21;;;;;;;6.65;4.32;;;;;;;34.48;22.86;100347.91;5087930;28;20032;-23
2021/07/26 10:54:47;;;;;;;8.27;4.20;;;;;;;34.56;22.34;100332.22;5088208;28;20043;-23
2021/07/26 10:57:13;;;;;;;7.25;3.88;;;;;;;34.42;22.33;100344.66;5087682;28;20026;-23
2021/07/26 11:00:10;;;;;;;5.85;3.75;;;;;;;34.47;22.81;100345.53;5087589;28;20047;-23
2021/07/26 11:02:46;;;;;;;7.13;3.58;;;;;;;34.53;22.35;100336.53;5087931;28;20074;-23
2021/07/26 11:05:24;;;;;;;7.13;4.00;;;;;;;34.64;22.50;100333.88;5087793;28;20032;-22
2021/07/26 11:08:09;;;;;;;6.65;3.72;;;;;;;34.38;21.67;100320.88;5087689;28;20262;-22
2021/07/26 11:10:44;;;;;;;7.28;4.18;;;;;;;34.97;21.90;100329.56;5072778;28;20059;-23
2021/07/26 11:13:09;;;;;;;6.57;3.97;;;;;;;34.98;22.35;100312.56;5087448;28;20544;-22
2021/07/26 11:15:47;;;;;;;6.82;4.10;;;;;;;35.85;20.38;100316.19;5088045;28;20020;-23
2021/07/26 11:18:45;;;;;;;8.27;4.10;;;;;;;35.84;20.56;100312.63;5087801;28;20111;-23
2021/07/26 11:21:14;;;;;;;6.07;4.07;;;;;;;35.57;19.55;100312.78;5074088;28;20087;-23
2021/07/26 11:23:50;;;;;;;8.25;4.80;;;;;;;35.28;20.53;100306.16;5087705;28;20031;-23
2021/07/26 11:26:20;;;;;;;8.73;4.20;;;;;;;35.06;20.61;100299.56;5087350;28;20039;-22
2021/07/26 11:28:46;;;;;;;9.15;4.18;;;;;;;34.81;22.14;100294.53;5087241;28;20067;-23
2021/07/26 11:31:22;;;;;;;9.80;4.28;;;;;;;34.64;22.05;100295.13;5087317;28;20101;-23
2021/07/26 11:33:47;;;;;;;6.75;3.95;;;;;;;35.06;20.33;100288.47;5069887;28;20043;-23
2021/07/26 11:36:13;;;;;;;10.10;4.40;;;;;;;35.38;20.76;100286.03;5087691;28;20025;-23
2021/07/26 11:39:01;;;;;;;6.38;4.18;;;;;;;35.78;20.27;100291.97;5087488;28;20032;-23
2021/07/26 11:41:26;;;;;;;8.73;4.00;;;;;;;35.00;20.22;100290.00;5087454;28;20024;-23